sensor_id;sensor_type;location;lat;lon;timestamp;pressure;altitude;pressure_sealevel;temperature;humidity
10466;BME280;5280;42.600;23.556;2023-04-26T00:00:18;92475.81;;;9.47;100.00
10466;BME280;5280;42.600;23.556;2023-04-26T00:02:46;92488.88;;;9.49;100.00
10466;BME280;5280;42.600;23.556;2023-04-26T00:05:13;92491.09;;;9.54;100.00
10466;BME280;5280;42.600;23.556;2023-04-26T00:07:40;92491.38;;;9.50;100.00
10466;BME280;5280;42.600;23.556;2023-04-26T00:10:08;92476.34;;;9.41;100.00
10466;BME280;5280;42.600;23.556;2023-04-26T00:12:37;92492.59;;;9.46;100.00
10466;BME280;5280;42.600;23.556;2023-04-26T00:15:06;92463.03;;;9.33;100.00
10466;BME280;5280;42.600;23.556;2023-04-26T00:17:34;92476.53;;;9.40;100.00
10466;BME280;5280;42.600;23.556;2023-04-26T00:20:00;92413.59;;;8.97;100.00
10466;BME280;5280;42.600;23.556;2023-04-26T00:22:28;92456.25;;;9.31;100.00
10466;BME280;5280;42.600;23.556;2023-04-26T00:24:55;92461.94;;;9.26;100.00
10466;BME280;5280;42.600;23.556;2023-04-26T00:27:22;92461.94;;;9.26;100.00
10466;BME280;5280;42.600;23.556;2023-04-26T00:29:50;92453.84;;;9.18;100.00
10466;BME280;5280;42.600;23.556;2023-04-26T00:32:17;92456.34;;;9.10;100.00
10466;BME280;5280;42.600;23.556;2023-04-26T00:34:44;92457.88;;;9.13;100.00
10466;BME280;5280;42.600;23.556;2023-04-26T00:37:12;92398.69;;;8.77;100.00
10466;BME280;5280;42.600;23.556;2023-04-26T00:39:38;92456.03;;;9.03;100.00
10466;BME280;5280;42.600;23.556;2023-04-26T00:42:07;92454.78;;;8.98;100.00
10466;BME280;5280;42.600;23.556;2023-04-26T00:44:35;92446.44;;;8.93;100.00
10466;BME280;5280;42.600;23.556;2023-04-26T00:47:05;92448.53;;;8.89;100.00
10466;BME280;5280;42.600;23.556;2023-04-26T00:49:32;92425.59;;;8.71;100.00
10466;BME280;5280;42.600;23.556;2023-04-26T00:51:59;92451.13;;;8.80;100.00
10466;BME280;5280;42.600;23.556;2023-04-26T00:54:26;92436.38;;;8.68;100.00
10466;BME280;5280;42.600;23.556;2023-04-26T00:56:54;92444.16;;;8.69;100.00
10466;BME280;5280;42.600;23.556;2023-04-26T00:59:21;92436.34;;;8.58;100.00
10466;BME280;5280;42.600;23.556;2023-04-26T01:01:48;92431.50;;;8.53;100.00
10466;BME280;5280;42.600;23.556;2023-04-26T01:04:16;92354.09;;;8.05;100.00
10466;BME280;5280;42.600;23.556;2023-04-26T01:06:44;92441.47;;;8.50;100.00
10466;BME280;5280;42.600;23.556;2023-04-26T01:09:11;92459.50;;;8.54;100.00
10466;BME280;5280;42.600;23.556;2023-04-26T01:11:40;92435.59;;;8.37;100.00
10466;BME280;5280;42.600;23.556;2023-04-26T01:14:08;92446.41;;;8.43;100.00
10466;BME280;5280;42.600;23.556;2023-04-26T01:16:35;92451.00;;;8.41;100.00
10466;BME280;5280;42.600;23.556;2023-04-26T01:19:07;92456.50;;;8.38;100.00
10466;BME280;5280;42.600;23.556;2023-04-26T01:21:36;92450.47;;;8.27;100.00
10466;BME280;5280;42.600;23.556;2023-04-26T01:24:06;92393.97;;;7.79;100.00
10466;BME280;5280;42.600;23.556;2023-04-26T01:26:34;92447.47;;;8.10;100.00
10466;BME280;5280;42.600;23.556;2023-04-26T01:29:12;92442.84;;;8.03;100.00
10466;BME280;5280;42.600;23.556;2023-04-26T01:31:40;92450.56;;;8.15;100.00
10466;BME280;5280;42.600;23.556;2023-04-26T01:34:06;92363.00;;;7.62;100.00
10466;BME280;5280;42.600;23.556;2023-04-26T01:36:33;92442.50;;;8.17;100.00
10466;BME280;5280;42.600;23.556;2023-04-26T01:39:00;92437.63;;;8.12;100.00
10466;BME280;5280;42.600;23.556;2023-04-26T01:41:28;92445.91;;;8.08;100.00
10466;BME280;5280;42.600;23.556;2023-04-26T01:43:55;92437.00;;;7.99;100.00
10466;BME280;5280;42.600;23.556;2023-04-26T01:46:22;92417.16;;;7.86;100.00
10466;BME280;5280;42.600;23.556;2023-04-26T01:48:49;92434.06;;;7.93;100.00
10466;BME280;5280;42.600;23.556;2023-04-26T01:51:16;92437.78;;;7.90;100.00
10466;BME280;5280;42.600;23.556;2023-04-26T01:53:43;92457.50;;;7.96;100.00
10466;BME280;5280;42.600;23.556;2023-04-26T01:56:09;92426.94;;;7.84;100.00
10466;BME280;5280;42.600;23.556;2023-04-26T01:58:37;92449.72;;;7.94;100.00
10466;BME280;5280;42.600;23.556;2023-04-26T02:01:08;92442.66;;;7.95;100.00
10466;BME280;5280;42.600;23.556;2023-04-26T02:03:35;92421.00;;;7.82;100.00
10466;BME280;5280;42.600;23.556;2023-04-26T02:06:02;92426.00;;;7.85;100.00
10466;BME280;5280;42.600;23.556;2023-04-26T02:08:29;92384.75;;;7.64;100.00
10466;BME280;5280;42.600;23.556;2023-04-26T02:10:57;92430.91;;;7.99;100.00
10466;BME280;5280;42.600;23.556;2023-04-26T02:13:23;92429.97;;;8.00;100.00
10466;BME280;5280;42.600;23.556;2023-04-26T02:15:52;92434.25;;;8.01;100.00
10466;BME280;5280;42.600;23.556;2023-04-26T02:18:19;92439.66;;;7.99;100.00
10466;BME280;5280;42.600;23.556;2023-04-26T02:20:47;92438.13;;;7.97;100.00
10466;BME280;5280;42.600;23.556;2023-04-26T02:23:13;92374.34;;;7.63;100.00
10466;BME280;5280;42.600;23.556;2023-04-26T02:25:42;92435.50;;;7.97;100.00
10466;BME280;5280;42.600;23.556;2023-04-26T02:28:11;92401.38;;;7.65;100.00
10466;BME280;5280;42.600;23.556;2023-04-26T02:30:37;92431.69;;;7.90;100.00
10466;BME280;5280;42.600;23.556;2023-04-26T02:33:06;92438.63;;;7.91;100.00
10466;BME280;5280;42.600;23.556;2023-04-26T02:35:33;92427.47;;;7.77;100.00
10466;BME280;5280;42.600;23.556;2023-04-26T02:38:00;92444.13;;;7.88;100.00
10466;BME280;5280;42.600;23.556;2023-04-26T02:40:27;92439.88;;;7.87;100.00
10466;BME280;5280;42.600;23.556;2023-04-26T02:42:54;92444.34;;;7.96;100.00
10466;BME280;5280;42.600;23.556;2023-04-26T02:45:22;92445.31;;;7.95;100.00
10466;BME280;5280;42.600;23.556;2023-04-26T02:47:48;92449.34;;;7.99;100.00
10466;BME280;5280;42.600;23.556;2023-04-26T02:50:16;92375.69;;;7.57;100.00
10466;BME280;5280;42.600;23.556;2023-04-26T02:52:43;92397.97;;;7.74;100.00
10466;BME280;5280;42.600;23.556;2023-04-26T02:55:10;92429.06;;;8.10;100.00
10466;BME280;5280;42.600;23.556;2023-04-26T02:57:37;92425.47;;;8.11;100.00
10466;BME280;5280;42.600;23.556;2023-04-26T03:00:05;92400.22;;;8.09;100.00
10466;BME280;5280;42.600;23.556;2023-04-26T03:02:32;92406.06;;;8.12;100.00
10466;BME280;5280;42.600;23.556;2023-04-26T03:05:00;92422.28;;;8.17;100.00
10466;BME280;5280;42.600;23.556;2023-04-26T03:07:28;92423.13;;;8.18;100.00
10466;BME280;5280;42.600;23.556;2023-04-26T03:09:55;92413.00;;;8.13;100.00
10466;BME280;5280;42.600;23.556;2023-04-26T03:12:22;92422.16;;;8.19;100.00
10466;BME280;5280;42.600;23.556;2023-04-26T03:14:49;92360.81;;;7.88;100.00
10466;BME280;5280;42.600;23.556;2023-04-26T03:17:16;92407.66;;;8.25;100.00
10466;BME280;5280;42.600;23.556;2023-04-26T03:19:43;92401.56;;;8.24;100.00
10466;BME280;5280;42.600;23.556;2023-04-26T03:22:09;92358.81;;;8.01;100.00
10466;BME280;5280;42.600;23.556;2023-04-26T03:24:41;92389.22;;;8.25;100.00
10466;BME280;5280;42.600;23.556;2023-04-26T03:27:08;92386.47;;;8.26;100.00
10466;BME280;5280;42.600;23.556;2023-04-26T03:29:35;92395.06;;;8.28;100.00
10466;BME280;5280;42.600;23.556;2023-04-26T03:32:02;92377.00;;;8.14;100.00
10466;BME280;5280;42.600;23.556;2023-04-26T03:34:30;92416.56;;;8.33;100.00
10466;BME280;5280;42.600;23.556;2023-04-26T03:36:57;92410.47;;;8.33;100.00
10466;BME280;5280;42.600;23.556;2023-04-26T03:39:24;92381.53;;;8.12;100.00
10466;BME280;5280;42.600;23.556;2023-04-26T03:41:52;92392.13;;;8.21;100.00
10466;BME280;5280;42.600;23.556;2023-04-26T03:44:19;92402.94;;;8.28;100.00
10466;BME280;5280;42.600;23.556;2023-04-26T03:46:46;92410.06;;;8.37;100.00
10466;BME280;5280;42.600;23.556;2023-04-26T03:49:13;92410.63;;;8.31;100.00
10466;BME280;5280;42.600;23.556;2023-04-26T03:51:40;92348.28;;;8.01;100.00
10466;BME280;5280;42.600;23.556;2023-04-26T03:54:06;92404.44;;;8.42;100.00
10466;BME280;5280;42.600;23.556;2023-04-26T03:56:33;92414.97;;;8.42;100.00
10466;BME280;5280;42.600;23.556;2023-04-26T03:59:02;92428.16;;;8.51;100.00
10466;BME280;5280;42.600;23.556;2023-04-26T04:01:29;92401.81;;;8.42;100.00
10466;BME280;5280;42.600;23.556;2023-04-26T04:03:56;92420.44;;;8.59;100.00
10466;BME280;5280;42.600;23.556;2023-04-26T04:06:25;92416.97;;;8.59;100.00
10466;BME280;5280;42.600;23.556;2023-04-26T04:08:52;92426.56;;;8.70;100.00
10466;BME280;5280;42.600;23.556;2023-04-26T04:11:20;92421.16;;;8.71;100.00
10466;BME280;5280;42.600;23.556;2023-04-26T04:13:47;92424.22;;;8.67;100.00
10466;BME280;5280;42.600;23.556;2023-04-26T04:16:15;92393.13;;;8.60;100.00
10466;BME280;5280;42.600;23.556;2023-04-26T04:18:42;92403.84;;;8.78;100.00
10466;BME280;5280;42.600;23.556;2023-04-26T04:21:09;92386.91;;;8.61;100.00
10466;BME280;5280;42.600;23.556;2023-04-26T04:23:36;92436.63;;;8.95;100.00
10466;BME280;5280;42.600;23.556;2023-04-26T04:26:03;92426.66;;;9.08;100.00
10466;BME280;5280;42.600;23.556;2023-04-26T04:28:31;92434.28;;;9.01;100.00
10466;BME280;5280;42.600;23.556;2023-04-26T04:30:58;92436.78;;;9.13;100.00
10466;BME280;5280;42.600;23.556;2023-04-26T04:33:27;92432.34;;;9.13;100.00
10466;BME280;5280;42.600;23.556;2023-04-26T04:35:55;92440.97;;;9.15;100.00
10466;BME280;5280;42.600;23.556;2023-04-26T04:38:22;92435.81;;;9.23;100.00
10466;BME280;5280;42.600;23.556;2023-04-26T04:40:49;92430.56;;;9.23;100.00
10466;BME280;5280;42.600;23.556;2023-04-26T04:43:17;92451.25;;;9.37;100.00
10466;BME280;5280;42.600;23.556;2023-04-26T04:45:44;92429.19;;;9.29;100.00
10466;BME280;5280;42.600;23.556;2023-04-26T04:48:12;92395.56;;;9.12;100.00
10466;BME280;5280;42.600;23.556;2023-04-26T04:50:40;92452.78;;;9.49;100.00
10466;BME280;5280;42.600;23.556;2023-04-26T04:53:07;92455.84;;;9.55;100.00
10466;BME280;5280;42.600;23.556;2023-04-26T04:55:34;92453.75;;;9.48;100.00
10466;BME280;5280;42.600;23.556;2023-04-26T04:58:02;92464.72;;;9.44;100.00
10466;BME280;5280;42.600;23.556;2023-04-26T05:00:29;92462.09;;;9.44;100.00
10466;BME280;5280;42.600;23.556;2023-04-26T05:02:57;92456.38;;;9.48;100.00
10466;BME280;5280;42.600;23.556;2023-04-26T05:05:24;92469.28;;;9.51;100.00
10466;BME280;5280;42.600;23.556;2023-04-26T05:07:52;92429.47;;;9.26;100.00
10466;BME280;5280;42.600;23.556;2023-04-26T05:10:19;92464.44;;;9.57;100.00
10466;BME280;5280;42.600;23.556;2023-04-26T05:12:45;92464.59;;;9.65;100.00
10466;BME280;5280;42.600;23.556;2023-04-26T05:15:12;92464.72;;;9.73;100.00
10466;BME280;5280;42.600;23.556;2023-04-26T05:17:40;92433.91;;;9.54;100.00
10466;BME280;5280;42.600;23.556;2023-04-26T05:20:08;92465.84;;;9.80;100.00
10466;BME280;5280;42.600;23.556;2023-04-26T05:22:35;92475.28;;;9.73;100.00
10466;BME280;5280;42.600;23.556;2023-04-26T05:25:07;92475.56;;;9.79;100.00
10466;BME280;5280;42.600;23.556;2023-04-26T05:27:34;92471.53;;;9.85;100.00
10466;BME280;5280;42.600;23.556;2023-04-26T05:30:02;92380.34;;;9.34;100.00
10466;BME280;5280;42.600;23.556;2023-04-26T05:32:29;92470.84;;;9.83;100.00
10466;BME280;5280;42.600;23.556;2023-04-26T05:34:56;92459.88;;;9.68;100.00
10466;BME280;5280;42.600;23.556;2023-04-26T05:37:22;92478.34;;;9.78;100.00
10466;BME280;5280;42.600;23.556;2023-04-26T05:39:49;92476.09;;;9.83;100.00
10466;BME280;5280;42.600;23.556;2023-04-26T05:42:17;92486.13;;;9.89;100.00
10466;BME280;5280;42.600;23.556;2023-04-26T05:44:44;92487.25;;;9.96;100.00
10466;BME280;5280;42.600;23.556;2023-04-26T05:47:11;92489.28;;;10.02;100.00
10466;BME280;5280;42.600;23.556;2023-04-26T05:49:38;92452.09;;;9.86;100.00
10466;BME280;5280;42.600;23.556;2023-04-26T05:52:04;92488.31;;;10.13;100.00
10466;BME280;5280;42.600;23.556;2023-04-26T05:54:31;92480.97;;;10.16;100.00
10466;BME280;5280;42.600;23.556;2023-04-26T05:56:58;92476.41;;;10.18;100.00
10466;BME280;5280;42.600;23.556;2023-04-26T05:59:27;92478.59;;;10.32;100.00
10466;BME280;5280;42.600;23.556;2023-04-26T06:01:57;92482.19;;;10.31;100.00
10466;BME280;5280;42.600;23.556;2023-04-26T06:04:24;92472.75;;;10.39;100.00
10466;BME280;5280;42.600;23.556;2023-04-26T06:06:50;92454.56;;;10.35;100.00
10466;BME280;5280;42.600;23.556;2023-04-26T06:09:17;92473.66;;;10.57;100.00
10466;BME280;5280;42.600;23.556;2023-04-26T06:11:44;92474.44;;;10.67;100.00
10466;BME280;5280;42.600;23.556;2023-04-26T06:14:11;92467.31;;;10.77;100.00
10466;BME280;5280;42.600;23.556;2023-04-26T06:16:39;92460.09;;;10.79;100.00
10466;BME280;5280;42.600;23.556;2023-04-26T06:19:06;92456.19;;;10.83;100.00
10466;BME280;5280;42.600;23.556;2023-04-26T06:21:33;92408.69;;;10.64;100.00
10466;BME280;5280;42.600;23.556;2023-04-26T06:24:00;92467.09;;;10.98;100.00
10466;BME280;5280;42.600;23.556;2023-04-26T06:26:26;92473.88;;;11.10;100.00
10466;BME280;5280;42.600;23.556;2023-04-26T06:28:53;92462.16;;;11.12;100.00
10466;BME280;5280;42.600;23.556;2023-04-26T06:31:20;92463.38;;;11.18;100.00
10466;BME280;5280;42.600;23.556;2023-04-26T06:33:48;92465.69;;;11.31;100.00
10466;BME280;5280;42.600;23.556;2023-04-26T06:36:15;92454.63;;;11.17;100.00
10466;BME280;5280;42.600;23.556;2023-04-26T06:38:42;92473.63;;;11.31;100.00
10466;BME280;5280;42.600;23.556;2023-04-26T06:41:09;92470.38;;;11.37;100.00
10466;BME280;5280;42.600;23.556;2023-04-26T06:43:37;92472.81;;;11.48;100.00
10466;BME280;5280;42.600;23.556;2023-04-26T06:46:04;92466.41;;;11.50;100.00
10466;BME280;5280;42.600;23.556;2023-04-26T06:48:31;92476.44;;;11.74;100.00
10466;BME280;5280;42.600;23.556;2023-04-26T06:51:04;92486.84;;;11.76;100.00
10466;BME280;5280;42.600;23.556;2023-04-26T06:53:31;92477.66;;;11.80;100.00
10466;BME280;5280;42.600;23.556;2023-04-26T06:55:58;92464.88;;;11.75;100.00
10466;BME280;5280;42.600;23.556;2023-04-26T06:58:24;92472.81;;;11.75;100.00
10466;BME280;5280;42.600;23.556;2023-04-26T07:00:51;92447.75;;;11.70;100.00
10466;BME280;5280;42.600;23.556;2023-04-26T07:03:18;92463.34;;;11.90;100.00
10466;BME280;5280;42.600;23.556;2023-04-26T07:05:45;92459.63;;;11.83;100.00
10466;BME280;5280;42.600;23.556;2023-04-26T07:08:13;92460.78;;;11.71;100.00
10466;BME280;5280;42.600;23.556;2023-04-26T07:10:40;92448.72;;;11.69;100.00
10466;BME280;5280;42.600;23.556;2023-04-26T07:13:07;92477.72;;;11.88;100.00
10466;BME280;5280;42.600;23.556;2023-04-26T07:15:34;92434.88;;;11.57;100.00
10466;BME280;5280;42.600;23.556;2023-04-26T07:18:00;92487.59;;;11.86;100.00
10466;BME280;5280;42.600;23.556;2023-04-26T07:20:27;92495.72;;;11.84;97.72
10466;BME280;5280;42.600;23.556;2023-04-26T07:22:54;92466.34;;;11.60;100.00
10466;BME280;5280;42.600;23.556;2023-04-26T07:25:22;92477.69;;;11.70;100.00
10466;BME280;5280;42.600;23.556;2023-04-26T07:27:49;92489.91;;;11.71;100.00
10466;BME280;5280;42.600;23.556;2023-04-26T07:30:16;92493.53;;;11.80;100.00
10466;BME280;5280;42.600;23.556;2023-04-26T07:32:43;92472.13;;;11.73;100.00
10466;BME280;5280;42.600;23.556;2023-04-26T07:35:10;92492.69;;;11.79;100.00
10466;BME280;5280;42.600;23.556;2023-04-26T07:37:41;92489.66;;;11.74;99.64
10466;BME280;5280;42.600;23.556;2023-04-26T07:40:10;92503.31;;;11.70;91.56
10466;BME280;5280;42.600;23.556;2023-04-26T07:42:39;92498.38;;;11.57;89.45
10466;BME280;5280;42.600;23.556;2023-04-26T07:45:07;92492.63;;;11.44;88.26
10466;BME280;5280;42.600;23.556;2023-04-26T07:47:34;92485.19;;;11.30;93.20
10466;BME280;5280;42.600;23.556;2023-04-26T07:50:00;92498.19;;;11.41;92.53
10466;BME280;5280;42.600;23.556;2023-04-26T07:52:27;92484.47;;;11.28;91.66
10466;BME280;5280;42.600;23.556;2023-04-26T07:54:54;92493.97;;;11.48;91.17
10466;BME280;5280;42.600;23.556;2023-04-26T07:57:21;92490.34;;;11.49;88.19
10466;BME280;5280;42.600;23.556;2023-04-26T07:59:50;92513.59;;;11.55;84.30
10466;BME280;5280;42.600;23.556;2023-04-26T08:02:17;92476.81;;;11.34;85.69
10466;BME280;5280;42.600;23.556;2023-04-26T08:04:46;92503.97;;;11.54;88.91
10466;BME280;5280;42.600;23.556;2023-04-26T08:07:14;92494.50;;;11.51;88.90
10466;BME280;5280;42.600;23.556;2023-04-26T08:09:41;92498.16;;;11.68;89.79
10466;BME280;5280;42.600;23.556;2023-04-26T08:12:09;92485.06;;;11.49;88.24
10466;BME280;5280;42.600;23.556;2023-04-26T08:14:36;92503.56;;;11.76;92.26
10466;BME280;5280;42.600;23.556;2023-04-26T08:17:06;92510.09;;;11.72;89.31
10466;BME280;5280;42.600;23.556;2023-04-26T08:19:33;92486.34;;;11.62;90.46
10466;BME280;5280;42.600;23.556;2023-04-26T08:22:00;92495.72;;;11.84;85.54
10466;BME280;5280;42.600;23.556;2023-04-26T08:24:28;92506.22;;;11.94;88.74
10466;BME280;5280;42.600;23.556;2023-04-26T08:26:55;92498.59;;;12.08;88.04
10466;BME280;5280;42.600;23.556;2023-04-26T08:29:23;92498.66;;;11.99;86.42
10466;BME280;5280;42.600;23.556;2023-04-26T08:31:51;92499.72;;;12.06;86.85
10466;BME280;5280;42.600;23.556;2023-04-26T08:34:19;92502.59;;;12.13;90.60
10466;BME280;5280;42.600;23.556;2023-04-26T08:36:46;92499.63;;;12.16;85.33
10466;BME280;5280;42.600;23.556;2023-04-26T08:39:13;92515.75;;;12.22;84.59
10466;BME280;5280;42.600;23.556;2023-04-26T08:41:43;92508.03;;;12.29;79.31
10466;BME280;5280;42.600;23.556;2023-04-26T08:44:11;92489.72;;;12.18;83.02
10466;BME280;5280;42.600;23.556;2023-04-26T08:46:45;92501.63;;;12.14;80.08
10466;BME280;5280;42.600;23.556;2023-04-26T08:52:01;92513.25;;;12.03;83.15
10466;BME280;5280;42.600;23.556;2023-04-26T08:54:30;92511.41;;;11.95;82.42
10466;BME280;5280;42.600;23.556;2023-04-26T08:56:58;92515.94;;;11.85;81.67
10466;BME280;5280;42.600;23.556;2023-04-26T08:59:25;92498.38;;;11.84;79.41
10466;BME280;5280;42.600;23.556;2023-04-26T09:01:52;92494.97;;;11.74;82.78
10466;BME280;5280;42.600;23.556;2023-04-26T09:04:19;92476.38;;;11.56;83.58
10466;BME280;5280;42.600;23.556;2023-04-26T09:06:46;92520.69;;;11.99;84.19
10466;BME280;5280;42.600;23.556;2023-04-26T09:09:17;92496.25;;;11.88;81.39
10466;BME280;5280;42.600;23.556;2023-04-26T09:11:54;92521.72;;;12.06;84.64
10466;BME280;5280;42.600;23.556;2023-04-26T09:14:22;92517.59;;;12.04;83.61
10466;BME280;5280;42.600;23.556;2023-04-26T09:16:49;92529.59;;;12.16;81.64
10466;BME280;5280;42.600;23.556;2023-04-26T09:19:16;92527.13;;;12.15;79.19
10466;BME280;5280;42.600;23.556;2023-04-26T09:21:45;92500.16;;;12.01;81.21
10466;BME280;5280;42.600;23.556;2023-04-26T09:24:12;92516.91;;;12.20;78.80
10466;BME280;5280;42.600;23.556;2023-04-26T09:26:41;92515.91;;;12.21;81.34
10466;BME280;5280;42.600;23.556;2023-04-26T09:29:12;92515.38;;;12.35;79.58
10466;BME280;5280;42.600;23.556;2023-04-26T09:31:41;92463.56;;;11.97;78.37
10466;BME280;5280;42.600;23.556;2023-04-26T09:34:09;92534.22;;;12.49;81.19
10466;BME280;5280;42.600;23.556;2023-04-26T09:36:50;92526.81;;;12.61;76.12
10466;BME280;5280;42.600;23.556;2023-04-26T09:39:31;92526.22;;;12.67;72.71
10466;BME280;5280;42.600;23.556;2023-04-26T09:41:59;92477.44;;;12.34;72.15
10466;BME280;5280;42.600;23.556;2023-04-26T09:44:28;92519.94;;;12.68;77.44
10466;BME280;5280;42.600;23.556;2023-04-26T09:47:00;92523.59;;;12.75;73.36
10466;BME280;5280;42.600;23.556;2023-04-26T09:49:30;92523.47;;;12.77;73.09
10466;BME280;5280;42.600;23.556;2023-04-26T09:52:01;92521.41;;;12.88;72.31
10466;BME280;5280;42.600;23.556;2023-04-26T09:54:39;92518.16;;;13.03;70.34
10466;BME280;5280;42.600;23.556;2023-04-26T09:57:08;92510.56;;;13.08;71.46
10466;BME280;5280;42.600;23.556;2023-04-26T09:59:39;92467.84;;;12.85;68.71
10466;BME280;5280;42.600;23.556;2023-04-26T10:02:10;92508.19;;;13.22;70.17
10466;BME280;5280;42.600;23.556;2023-04-26T10:04:39;92516.38;;;13.37;71.40
10466;BME280;5280;42.600;23.556;2023-04-26T10:07:07;92502.00;;;13.48;75.18
10466;BME280;5280;42.600;23.556;2023-04-26T10:09:35;92514.94;;;13.51;70.90
10466;BME280;5280;42.600;23.556;2023-04-26T10:12:02;92474.25;;;13.42;71.01
10466;BME280;5280;42.600;23.556;2023-04-26T10:14:33;92499.19;;;13.57;70.52
10466;BME280;5280;42.600;23.556;2023-04-26T10:17:02;92509.88;;;13.73;68.85
10466;BME280;5280;42.600;23.556;2023-04-26T10:19:29;92514.56;;;13.79;66.97
10466;BME280;5280;42.600;23.556;2023-04-26T10:22:01;92496.41;;;13.75;65.62
10466;BME280;5280;42.600;23.556;2023-04-26T10:24:29;92504.88;;;13.70;70.03
10466;BME280;5280;42.600;23.556;2023-04-26T10:26:56;92503.25;;;13.86;69.02
10466;BME280;5280;42.600;23.556;2023-04-26T10:29:25;92468.09;;;13.84;68.36
10466;BME280;5280;42.600;23.556;2023-04-26T10:32:07;92480.56;;;13.99;65.32
10466;BME280;5280;42.600;23.556;2023-04-26T10:34:36;92518.25;;;14.11;65.01
10466;BME280;5280;42.600;23.556;2023-04-26T10:37:07;92507.78;;;14.01;64.00
10466;BME280;5280;42.600;23.556;2023-04-26T10:39:34;92501.47;;;14.02;65.45
10466;BME280;5280;42.600;23.556;2023-04-26T10:42:18;92498.00;;;14.02;68.30
10466;BME280;5280;42.600;23.556;2023-04-26T10:44:48;92511.78;;;14.05;68.58
10466;BME280;5280;42.600;23.556;2023-04-26T10:47:26;92487.94;;;13.63;68.57
10466;BME280;5280;42.600;23.556;2023-04-26T10:50:00;92488.94;;;13.70;69.18
10466;BME280;5280;42.600;23.556;2023-04-26T10:52:28;92497.22;;;13.59;72.95
10466;BME280;5280;42.600;23.556;2023-04-26T10:54:57;92453.69;;;13.10;74.92
10466;BME280;5280;42.600;23.556;2023-04-26T10:57:47;92492.13;;;13.24;77.47
10466;BME280;5280;42.600;23.556;2023-04-26T11:00:28;92513.47;;;13.14;76.75
10466;BME280;5280;42.600;23.556;2023-04-26T11:03:08;92499.09;;;12.99;77.22
10466;BME280;5280;42.600;23.556;2023-04-26T11:05:55;92500.69;;;12.92;80.96
10466;BME280;5280;42.600;23.556;2023-04-26T11:08:26;92513.28;;;12.90;77.55
10466;BME280;5280;42.600;23.556;2023-04-26T11:11:04;92514.69;;;13.02;81.03
10466;BME280;5280;42.600;23.556;2023-04-26T11:13:35;92496.97;;;13.11;77.90
10466;BME280;5280;42.600;23.556;2023-04-26T11:16:05;92522.28;;;13.23;74.25
10466;BME280;5280;42.600;23.556;2023-04-26T11:18:34;92520.63;;;13.22;72.94
10466;BME280;5280;42.600;23.556;2023-04-26T11:21:02;92518.31;;;13.27;76.50
10466;BME280;5280;42.600;23.556;2023-04-26T11:23:30;92527.63;;;13.31;74.11
10466;BME280;5280;42.600;23.556;2023-04-26T11:25:57;92525.44;;;13.26;75.79
10466;BME280;5280;42.600;23.556;2023-04-26T11:28:24;92536.22;;;13.25;72.66
10466;BME280;5280;42.600;23.556;2023-04-26T11:30:51;92532.56;;;13.26;70.02
10466;BME280;5280;42.600;23.556;2023-04-26T11:33:19;92528.59;;;13.30;72.63
10466;BME280;5280;42.600;23.556;2023-04-26T11:35:49;92521.47;;;13.30;77.04
10466;BME280;5280;42.600;23.556;2023-04-26T11:38:16;92524.13;;;13.30;73.35
10466;BME280;5280;42.600;23.556;2023-04-26T11:40:44;92521.66;;;13.29;70.53
10466;BME280;5280;42.600;23.556;2023-04-26T11:43:12;92521.31;;;13.32;72.29
10466;BME280;5280;42.600;23.556;2023-04-26T11:45:41;92518.78;;;13.22;73.31
10466;BME280;5280;42.600;23.556;2023-04-26T11:48:09;92523.00;;;13.33;75.66
10466;BME280;5280;42.600;23.556;2023-04-26T11:50:38;92517.22;;;13.38;72.78
10466;BME280;5280;42.600;23.556;2023-04-26T11:53:08;92509.56;;;13.34;72.09
10466;BME280;5280;42.600;23.556;2023-04-26T11:55:35;92515.69;;;13.35;70.76
10466;BME280;5280;42.600;23.556;2023-04-26T11:58:09;92503.44;;;13.34;75.84
10466;BME280;5280;42.600;23.556;2023-04-26T12:00:55;92513.38;;;13.32;81.90
10466;BME280;5280;42.600;23.556;2023-04-26T12:03:22;92504.94;;;13.36;82.01
10466;BME280;5280;42.600;23.556;2023-04-26T12:05:54;92514.56;;;13.38;85.54
10466;BME280;5280;42.600;23.556;2023-04-26T12:08:25;92498.47;;;13.39;86.76
10466;BME280;5280;42.600;23.556;2023-04-26T12:10:52;92498.97;;;13.34;79.49
10466;BME280;5280;42.600;23.556;2023-04-26T12:13:19;92496.75;;;13.30;72.15
10466;BME280;5280;42.600;23.556;2023-04-26T12:15:46;92488.16;;;13.28;73.88
10466;BME280;5280;42.600;23.556;2023-04-26T12:18:15;92490.44;;;13.23;69.03
10466;BME280;5280;42.600;23.556;2023-04-26T12:20:42;92490.47;;;13.05;71.53
10466;BME280;5280;42.600;23.556;2023-04-26T12:23:12;92476.25;;;12.80;72.54
10466;BME280;5280;42.600;23.556;2023-04-26T12:25:50;92486.97;;;12.97;73.11
10466;BME280;5280;42.600;23.556;2023-04-26T12:28:17;92486.31;;;12.94;69.05
10466;BME280;5280;42.600;23.556;2023-04-26T12:30:44;92469.50;;;12.86;70.65
10466;BME280;5280;42.600;23.556;2023-04-26T12:33:11;92493.56;;;12.92;69.83
10466;BME280;5280;42.600;23.556;2023-04-26T12:35:38;92486.22;;;12.86;71.96
10466;BME280;5280;42.600;23.556;2023-04-26T12:38:05;92471.63;;;12.82;66.93
10466;BME280;5280;42.600;23.556;2023-04-26T12:40:32;92478.34;;;12.94;66.79
10466;BME280;5280;42.600;23.556;2023-04-26T12:43:01;92480.81;;;12.96;61.33
10466;BME280;5280;42.600;23.556;2023-04-26T12:45:28;92486.66;;;13.00;67.87
10466;BME280;5280;42.600;23.556;2023-04-26T12:47:55;92463.78;;;12.99;69.54
10466;BME280;5280;42.600;23.556;2023-04-26T12:50:21;92484.63;;;13.19;63.34
10466;BME280;5280;42.600;23.556;2023-04-26T12:52:48;92490.44;;;13.23;65.32
10466;BME280;5280;42.600;23.556;2023-04-26T12:55:15;92467.69;;;13.12;67.59
10466;BME280;5280;42.600;23.556;2023-04-26T12:57:43;92488.34;;;13.34;61.36
10466;BME280;5280;42.600;23.556;2023-04-26T13:00:13;92485.38;;;13.38;63.38
10466;BME280;5280;42.600;23.556;2023-04-26T13:02:41;92472.03;;;13.21;64.27
10466;BME280;5280;42.600;23.556;2023-04-26T13:05:08;92474.53;;;13.31;59.31
10466;BME280;5280;42.600;23.556;2023-04-26T13:07:37;92485.50;;;13.36;60.06